sensor_id;sensor_type;location;lat;lon;timestamp;P1;durP1;ratioP1;P2;durP2;ratioP2
85670;SDS011;76102;50.890;3.932;2024-03-29T00:00:14;3.28;;;1.23;;
85670;SDS011;76102;50.890;3.932;2024-03-29T00:02:41;7.53;;;1.20;;
85670;SDS011;76102;50.890;3.932;2024-03-29T00:05:06;4.28;;;1.10;;
85670;SDS011;76102;50.890;3.932;2024-03-29T00:07:39;4.55;;;1.10;;
85670;SDS011;76102;50.890;3.932;2024-03-29T00:10:07;5.43;;;1.40;;
85670;SDS011;76102;50.890;3.932;2024-03-29T00:12:35;9.13;;;1.30;;
85670;SDS011;76102;50.890;3.932;2024-03-29T00:15:01;5.38;;;0.98;;
85670;SDS011;76102;50.890;3.932;2024-03-29T00:17:32;4.95;;;1.60;;
85670;SDS011;76102;50.890;3.932;2024-03-29T00:19:58;6.55;;;1.42;;
85670;SDS011;76102;50.890;3.932;2024-03-29T00:22:23;7.18;;;1.58;;
85670;SDS011;76102;50.890;3.932;2024-03-29T00:24:49;6.90;;;1.67;;
85670;SDS011;76102;50.890;3.932;2024-03-29T00:27:15;4.07;;;0.82;;
85670;SDS011;76102;50.890;3.932;2024-03-29T00:29:40;5.85;;;1.20;;
85670;SDS011;76102;50.890;3.932;2024-03-29T00:32:08;2.45;;;0.82;;
85670;SDS011;76102;50.890;3.932;2024-03-29T00:34:33;3.45;;;1.27;;
85670;SDS011;76102;50.890;3.932;2024-03-29T00:37:03;4.35;;;1.23;;
85670;SDS011;76102;50.890;3.932;2024-03-29T00:39:29;3.25;;;1.10;;
85670;SDS011;76102;50.890;3.932;2024-03-29T00:41:57;3.13;;;0.88;;
85670;SDS011;76102;50.890;3.932;2024-03-29T00:44:25;5.78;;;1.25;;
85670;SDS011;76102;50.890;3.932;2024-03-29T00:46:50;1.83;;;1.00;;
85670;SDS011;76102;50.890;3.932;2024-03-29T00:49:20;5.75;;;1.20;;
85670;SDS011;76102;50.890;3.932;2024-03-29T00:51:46;2.88;;;0.80;;
85670;SDS011;76102;50.890;3.932;2024-03-29T00:54:14;6.28;;;1.50;;
85670;SDS011;76102;50.890;3.932;2024-03-29T00:56:39;6.65;;;1.27;;
85670;SDS011;76102;50.890;3.932;2024-03-29T00:59:10;2.70;;;1.27;;
85670;SDS011;76102;50.890;3.932;2024-03-29T01:01:36;3.72;;;1.05;;
85670;SDS011;76102;50.890;3.932;2024-03-29T01:04:04;3.08;;;0.95;;
85670;SDS011;76102;50.890;3.932;2024-03-29T01:06:32;4.32;;;1.27;;
85670;SDS011;76102;50.890;3.932;2024-03-29T01:08:57;5.38;;;1.25;;
85670;SDS011;76102;50.890;3.932;2024-03-29T01:11:23;3.55;;;1.10;;
85670;SDS011;76102;50.890;3.932;2024-03-29T01:13:51;4.90;;;1.08;;
85670;SDS011;76102;50.890;3.932;2024-03-29T01:16:17;1.80;;;0.82;;
85670;SDS011;76102;50.890;3.932;2024-03-29T01:18:43;2.80;;;1.17;;
85670;SDS011;76102;50.890;3.932;2024-03-29T01:21:09;2.53;;;1.02;;
85670;SDS011;76102;50.890;3.932;2024-03-29T01:26:05;1.80;;;0.90;;
85670;SDS011;76102;50.890;3.932;2024-03-29T01:28:31;4.38;;;1.05;;
85670;SDS011;76102;50.890;3.932;2024-03-29T01:30:57;5.65;;;0.90;;
85670;SDS011;76102;50.890;3.932;2024-03-29T01:33:28;6.03;;;1.00;;
85670;SDS011;76102;50.890;3.932;2024-03-29T01:35:59;0.82;;;0.60;;
85670;SDS011;76102;50.890;3.932;2024-03-29T01:38:25;3.53;;;1.23;;
85670;SDS011;76102;50.890;3.932;2024-03-29T01:40:51;5.13;;;1.00;;
85670;SDS011;76102;50.890;3.932;2024-03-29T01:43:16;1.88;;;0.57;;
85670;SDS011;76102;50.890;3.932;2024-03-29T01:45:47;2.67;;;0.95;;
85670;SDS011;76102;50.890;3.932;2024-03-29T01:48:16;3.55;;;0.85;;
85670;SDS011;76102;50.890;3.932;2024-03-29T01:50:45;1.45;;;1.33;;
85670;SDS011;76102;50.890;3.932;2024-03-29T01:53:18;1.85;;;0.40;;
85670;SDS011;76102;50.890;3.932;2024-03-29T01:55:45;1.58;;;0.50;;
85670;SDS011;76102;50.890;3.932;2024-03-29T01:58:13;1.02;;;0.35;;
85670;SDS011;76102;50.890;3.932;2024-03-29T02:00:48;2.75;;;0.50;;
85670;SDS011;76102;50.890;3.932;2024-03-29T02:03:20;0.30;;;0.30;;
85670;SDS011;76102;50.890;3.932;2024-03-29T02:05:48;4.00;;;0.50;;
85670;SDS011;76102;50.890;3.932;2024-03-29T02:08:16;3.75;;;0.50;;
85670;SDS011;76102;50.890;3.932;2024-03-29T02:10:47;6.05;;;0.80;;
85670;SDS011;76102;50.890;3.932;2024-03-29T02:13:16;0.32;;;0.30;;
85670;SDS011;76102;50.890;3.932;2024-03-29T02:15:42;1.85;;;0.38;;
85670;SDS011;76102;50.890;3.932;2024-03-29T02:18:08;1.30;;;0.38;;
85670;SDS011;76102;50.890;3.932;2024-03-29T02:20:34;0.55;;;0.50;;
85670;SDS011;76102;50.890;3.932;2024-03-29T02:23:26;0.57;;;0.40;;
85670;SDS011;76102;50.890;3.932;2024-03-29T02:25:52;1.05;;;0.40;;
85670;SDS011;76102;50.890;3.932;2024-03-29T02:28:17;0.52;;;0.47;;
85670;SDS011;76102;50.890;3.932;2024-03-29T02:30:46;1.08;;;0.50;;
85670;SDS011;76102;50.890;3.932;2024-03-29T02:33:14;0.73;;;0.38;;
85670;SDS011;76102;50.890;3.932;2024-03-29T02:35:42;5.30;;;0.50;;
85670;SDS011;76102;50.890;3.932;2024-03-29T02:38:07;1.38;;;0.70;;
85670;SDS011;76102;50.890;3.932;2024-03-29T02:40:33;1.33;;;0.93;;
85670;SDS011;76102;50.890;3.932;2024-03-29T02:42:59;4.57;;;0.80;;
85670;SDS011;76102;50.890;3.932;2024-03-29T02:45:24;6.18;;;0.75;;
85670;SDS011;76102;50.890;3.932;2024-03-29T02:47:52;0.50;;;0.30;;
85670;SDS011;76102;50.890;3.932;2024-03-29T02:50:22;2.28;;;0.75;;
85670;SDS011;76102;50.890;3.932;2024-03-29T02:52:50;1.60;;;0.70;;
85670;SDS011;76102;50.890;3.932;2024-03-29T02:55:16;0.68;;;0.68;;
85670;SDS011;76102;50.890;3.932;2024-03-29T02:57:46;5.13;;;1.50;;
85670;SDS011;76102;50.890;3.932;2024-03-29T03:00:14;2.47;;;0.75;;
85670;SDS011;76102;50.890;3.932;2024-03-29T03:02:40;1.90;;;1.08;;
85670;SDS011;76102;50.890;3.932;2024-03-29T03:05:06;1.75;;;0.52;;
85670;SDS011;76102;50.890;3.932;2024-03-29T03:07:32;2.28;;;0.50;;
85670;SDS011;76102;50.890;3.932;2024-03-29T03:10:21;0.90;;;0.60;;
85670;SDS011;76102;50.890;3.932;2024-03-29T03:13:08;3.45;;;0.82;;
85670;SDS011;76102;50.890;3.932;2024-03-29T03:15:36;5.25;;;1.35;;
85670;SDS011;76102;50.890;3.932;2024-03-29T03:18:04;3.97;;;1.23;;
85670;SDS011;76102;50.890;3.932;2024-03-29T03:20:30;2.47;;;0.98;;
85670;SDS011;76102;50.890;3.932;2024-03-29T03:22:57;3.60;;;1.27;;
85670;SDS011;76102;50.890;3.932;2024-03-29T03:25:24;4.57;;;1.25;;
85670;SDS011;76102;50.890;3.932;2024-03-29T03:27:52;1.42;;;1.02;;
85670;SDS011;76102;50.890;3.932;2024-03-29T03:30:18;3.83;;;1.20;;
85670;SDS011;76102;50.890;3.932;2024-03-29T03:32:44;1.15;;;0.98;;
85670;SDS011;76102;50.890;3.932;2024-03-29T03:35:10;2.35;;;1.05;;
85670;SDS011;76102;50.890;3.932;2024-03-29T03:37:35;5.03;;;1.33;;
85670;SDS011;76102;50.890;3.932;2024-03-29T03:40:01;3.72;;;1.17;;
85670;SDS011;76102;50.890;3.932;2024-03-29T03:42:32;4.40;;;1.67;;
85670;SDS011;76102;50.890;3.932;2024-03-29T03:44:58;5.13;;;1.20;;
85670;SDS011;76102;50.890;3.932;2024-03-29T03:47:23;3.53;;;1.30;;
85670;SDS011;76102;50.890;3.932;2024-03-29T03:49:49;5.03;;;1.52;;
85670;SDS011;76102;50.890;3.932;2024-03-29T03:52:17;3.70;;;1.40;;
85670;SDS011;76102;50.890;3.932;2024-03-29T03:54:42;3.50;;;1.20;;
85670;SDS011;76102;50.890;3.932;2024-03-29T03:57:10;4.68;;;1.23;;
85670;SDS011;76102;50.890;3.932;2024-03-29T03:59:38;2.53;;;1.27;;
85670;SDS011;76102;50.890;3.932;2024-03-29T04:02:06;4.85;;;1.23;;
85670;SDS011;76102;50.890;3.932;2024-03-29T04:04:32;4.88;;;1.27;;
85670;SDS011;76102;50.890;3.932;2024-03-29T04:06:58;6.20;;;1.40;;
85670;SDS011;76102;50.890;3.932;2024-03-29T04:09:26;3.70;;;1.58;;
85670;SDS011;76102;50.890;3.932;2024-03-29T04:11:51;5.05;;;1.70;;
85670;SDS011;76102;50.890;3.932;2024-03-29T04:14:19;2.83;;;1.35;;
85670;SDS011;76102;50.890;3.932;2024-03-29T04:16:52;2.22;;;1.40;;
85670;SDS011;76102;50.890;3.932;2024-03-29T04:19:17;1.73;;;1.30;;
85670;SDS011;76102;50.890;3.932;2024-03-29T04:21:45;2.72;;;1.45;;
85670;SDS011;76102;50.890;3.932;2024-03-29T04:24:13;2.80;;;1.25;;
85670;SDS011;76102;50.890;3.932;2024-03-29T04:26:39;3.88;;;1.52;;
85670;SDS011;76102;50.890;3.932;2024-03-29T04:29:09;5.25;;;1.58;;
85670;SDS011;76102;50.890;3.932;2024-03-29T04:31:38;3.85;;;1.27;;
85670;SDS011;76102;50.890;3.932;2024-03-29T04:34:03;4.25;;;2.40;;
85670;SDS011;76102;50.890;3.932;2024-03-29T04:36:32;4.10;;;1.30;;
85670;SDS011;76102;50.890;3.932;2024-03-29T04:38:57;2.92;;;1.50;;
85670;SDS011;76102;50.890;3.932;2024-03-29T04:41:23;2.25;;;1.15;;
85670;SDS011;76102;50.890;3.932;2024-03-29T04:43:50;6.43;;;1.30;;
85670;SDS011;76102;50.890;3.932;2024-03-29T04:46:18;3.20;;;1.33;;
85670;SDS011;76102;50.890;3.932;2024-03-29T04:48:43;1.98;;;1.30;;
85670;SDS011;76102;50.890;3.932;2024-03-29T04:51:11;3.85;;;1.52;;
85670;SDS011;76102;50.890;3.932;2024-03-29T04:53:37;3.25;;;1.40;;
85670;SDS011;76102;50.890;3.932;2024-03-29T04:56:05;6.50;;;1.92;;
85670;SDS011;76102;50.890;3.932;2024-03-29T04:58:31;2.05;;;1.30;;
85670;SDS011;76102;50.890;3.932;2024-03-29T05:03:25;3.45;;;1.48;;
85670;SDS011;76102;50.890;3.932;2024-03-29T05:05:51;2.30;;;1.10;;
85670;SDS011;76102;50.890;3.932;2024-03-29T05:08:22;2.35;;;1.13;;
85670;SDS011;76102;50.890;3.932;2024-03-29T05:10:50;2.80;;;1.40;;
85670;SDS011;76102;50.890;3.932;2024-03-29T05:13:16;8.55;;;2.00;;
85670;SDS011;76102;50.890;3.932;2024-03-29T05:15:42;3.58;;;1.38;;
85670;SDS011;76102;50.890;3.932;2024-03-29T05:18:08;2.38;;;1.90;;
85670;SDS011;76102;50.890;3.932;2024-03-29T05:20:36;3.40;;;2.05;;
85670;SDS011;76102;50.890;3.932;2024-03-29T05:23:02;5.35;;;2.20;;
85670;SDS011;76102;50.890;3.932;2024-03-29T05:25:29;3.42;;;1.90;;
85670;SDS011;76102;50.890;3.932;2024-03-29T05:27:58;4.20;;;1.67;;
85670;SDS011;76102;50.890;3.932;2024-03-29T05:30:23;5.13;;;2.05;;
85670;SDS011;76102;50.890;3.932;2024-03-29T05:32:54;5.22;;;2.53;;
85670;SDS011;76102;50.890;3.932;2024-03-29T05:35:19;4.38;;;2.30;;
85670;SDS011;76102;50.890;3.932;2024-03-29T05:37:45;5.43;;;2.35;;
85670;SDS011;76102;50.890;3.932;2024-03-29T05:40:15;5.95;;;2.50;;
85670;SDS011;76102;50.890;3.932;2024-03-29T05:42:41;8.02;;;3.03;;
85670;SDS011;76102;50.890;3.932;2024-03-29T05:45:21;6.28;;;2.88;;
85670;SDS011;76102;50.890;3.932;2024-03-29T05:47:51;6.72;;;2.80;;
85670;SDS011;76102;50.890;3.932;2024-03-29T05:50:18;6.27;;;3.10;;
85670;SDS011;76102;50.890;3.932;2024-03-29T05:52:46;10.55;;;3.50;;
85670;SDS011;76102;50.890;3.932;2024-03-29T05:57:38;7.18;;;2.78;;
85670;SDS011;76102;50.890;3.932;2024-03-29T06:00:06;5.05;;;2.65;;
85670;SDS011;76102;50.890;3.932;2024-03-29T06:02:36;4.00;;;2.57;;
85670;SDS011;76102;50.890;3.932;2024-03-29T06:05:07;5.80;;;2.50;;
85670;SDS011;76102;50.890;3.932;2024-03-29T06:07:37;5.68;;;2.85;;
85670;SDS011;76102;50.890;3.932;2024-03-29T06:10:03;6.20;;;2.30;;
85670;SDS011;76102;50.890;3.932;2024-03-29T06:12:31;5.82;;;2.08;;
85670;SDS011;76102;50.890;3.932;2024-03-29T06:14:57;4.90;;;2.50;;
85670;SDS011;76102;50.890;3.932;2024-03-29T06:17:44;4.70;;;2.10;;
85670;SDS011;76102;50.890;3.932;2024-03-29T06:20:12;5.10;;;2.08;;
85670;SDS011;76102;50.890;3.932;2024-03-29T06:22:38;3.40;;;2.20;;
85670;SDS011;76102;50.890;3.932;2024-03-29T06:25:03;5.10;;;2.00;;
85670;SDS011;76102;50.890;3.932;2024-03-29T06:27:32;3.30;;;1.77;;
85670;SDS011;76102;50.890;3.932;2024-03-29T06:30:02;2.70;;;1.70;;
85670;SDS011;76102;50.890;3.932;2024-03-29T06:32:31;3.65;;;1.70;;
85670;SDS011;76102;50.890;3.932;2024-03-29T06:35:04;4.00;;;1.88;;
85670;SDS011;76102;50.890;3.932;2024-03-29T06:37:31;3.25;;;1.38;;
85670;SDS011;76102;50.890;3.932;2024-03-29T06:39:59;3.45;;;1.58;;
85670;SDS011;76102;50.890;3.932;2024-03-29T06:42:25;2.75;;;1.65;;
85670;SDS011;76102;50.890;3.932;2024-03-29T06:44:53;2.25;;;1.67;;
85670;SDS011;76102;50.890;3.932;2024-03-29T06:47:21;2.03;;;1.58;;
85670;SDS011;76102;50.890;3.932;2024-03-29T06:49:52;6.05;;;1.80;;
85670;SDS011;76102;50.890;3.932;2024-03-29T06:52:20;4.47;;;2.25;;
85670;SDS011;76102;50.890;3.932;2024-03-29T06:54:45;3.28;;;1.98;;
85670;SDS011;76102;50.890;3.932;2024-03-29T06:57:11;5.68;;;2.33;;
85670;SDS011;76102;50.890;3.932;2024-03-29T06:59:40;2.95;;;1.50;;
85670;SDS011;76102;50.890;3.932;2024-03-29T07:02:06;3.65;;;1.77;;
85670;SDS011;76102;50.890;3.932;2024-03-29T07:04:32;3.03;;;1.67;;
85670;SDS011;76102;50.890;3.932;2024-03-29T07:07:00;1.65;;;1.55;;
85670;SDS011;76102;50.890;3.932;2024-03-29T07:09:28;3.53;;;1.95;;
85670;SDS011;76102;50.890;3.932;2024-03-29T07:11:56;5.50;;;2.10;;
85670;SDS011;76102;50.890;3.932;2024-03-29T07:14:24;3.30;;;1.20;;
85670;SDS011;76102;50.890;3.932;2024-03-29T07:16:51;4.20;;;1.85;;
85670;SDS011;76102;50.890;3.932;2024-03-29T07:19:17;3.25;;;1.83;;
85670;SDS011;76102;50.890;3.932;2024-03-29T07:21:44;3.65;;;1.80;;
85670;SDS011;76102;50.890;3.932;2024-03-29T07:24:12;4.20;;;1.88;;
85670;SDS011;76102;50.890;3.932;2024-03-29T07:26:38;5.03;;;2.45;;
85670;SDS011;76102;50.890;3.932;2024-03-29T07:29:06;3.88;;;2.03;;
85670;SDS011;76102;50.890;3.932;2024-03-29T07:31:34;3.60;;;2.10;;
85670;SDS011;76102;50.890;3.932;2024-03-29T07:34:00;4.28;;;2.45;;
85670;SDS011;76102;50.890;3.932;2024-03-29T07:36:26;3.85;;;2.00;;
85670;SDS011;76102;50.890;3.932;2024-03-29T07:38:56;5.05;;;2.22;;
85670;SDS011;76102;50.890;3.932;2024-03-29T07:41:23;5.28;;;2.15;;
85670;SDS011;76102;50.890;3.932;2024-03-29T07:43:52;4.82;;;2.30;;
85670;SDS011;76102;50.890;3.932;2024-03-29T07:46:24;3.17;;;2.10;;
85670;SDS011;76102;50.890;3.932;2024-03-29T07:48:58;3.53;;;2.17;;
85670;SDS011;76102;50.890;3.932;2024-03-29T07:51:23;3.75;;;1.80;;
85670;SDS011;76102;50.890;3.932;2024-03-29T07:53:49;6.53;;;2.38;;
85670;SDS011;76102;50.890;3.932;2024-03-29T07:56:17;6.13;;;2.42;;
85670;SDS011;76102;50.890;3.932;2024-03-29T07:58:43;4.63;;;2.13;;
85670;SDS011;76102;50.890;3.932;2024-03-29T08:01:09;6.03;;;2.53;;
85670;SDS011;76102;50.890;3.932;2024-03-29T08:03:35;5.45;;;2.55;;
85670;SDS011;76102;50.890;3.932;2024-03-29T08:06:01;4.70;;;2.00;;
85670;SDS011;76102;50.890;3.932;2024-03-29T08:08:31;5.55;;;2.05;;
85670;SDS011;76102;50.890;3.932;2024-03-29T08:10:58;2.78;;;1.83;;
85670;SDS011;76102;50.890;3.932;2024-03-29T08:13:26;4.80;;;2.35;;
85670;SDS011;76102;50.890;3.932;2024-03-29T08:16:01;5.28;;;2.03;;
85670;SDS011;76102;50.890;3.932;2024-03-29T08:18:28;3.72;;;1.90;;
85670;SDS011;76102;50.890;3.932;2024-03-29T08:20:56;5.95;;;2.67;;
85670;SDS011;76102;50.890;3.932;2024-03-29T08:23:23;5.60;;;2.55;;
85670;SDS011;76102;50.890;3.932;2024-03-29T08:25:51;4.47;;;2.28;;
85670;SDS011;76102;50.890;3.932;2024-03-29T08:28:23;4.85;;;2.53;;
85670;SDS011;76102;50.890;3.932;2024-03-29T08:30:57;4.30;;;1.92;;
85670;SDS011;76102;50.890;3.932;2024-03-29T08:33:29;5.80;;;2.65;;
85670;SDS011;76102;50.890;3.932;2024-03-29T08:35:56;6.53;;;2.30;;
85670;SDS011;76102;50.890;3.932;2024-03-29T08:38:22;5.38;;;1.90;;
85670;SDS011;76102;50.890;3.932;2024-03-29T08:40:50;8.48;;;3.08;;
85670;SDS011;76102;50.890;3.932;2024-03-29T08:43:16;6.80;;;1.83;;
85670;SDS011;76102;50.890;3.932;2024-03-29T08:50:38;5.78;;;2.15;;
85670;SDS011;76102;50.890;3.932;2024-03-29T08:53:04;4.07;;;2.38;;
85670;SDS011;76102;50.890;3.932;2024-03-29T08:55:31;4.70;;;2.45;;
85670;SDS011;76102;50.890;3.932;2024-03-29T08:58:00;3.90;;;2.10;;
85670;SDS011;76102;50.890;3.932;2024-03-29T09:00:29;3.97;;;2.08;;
85670;SDS011;76102;50.890;3.932;2024-03-29T09:02:55;3.88;;;2.15;;
85670;SDS011;76102;50.890;3.932;2024-03-29T09:05:22;3.47;;;1.92;;
85670;SDS011;76102;50.890;3.932;2024-03-29T09:07:48;2.47;;;1.83;;
85670;SDS011;76102;50.890;3.932;2024-03-29T09:10:14;2.95;;;1.88;;
85670;SDS011;76102;50.890;3.932;2024-03-29T09:12:40;2.42;;;2.03;;
85670;SDS011;76102;50.890;3.932;2024-03-29T09:15:06;6.07;;;2.00;;
85670;SDS011;76102;50.890;3.932;2024-03-29T09:17:39;2.25;;;1.58;;
85670;SDS011;76102;50.890;3.932;2024-03-29T09:20:05;3.50;;;1.88;;
85670;SDS011;76102;50.890;3.932;2024-03-29T09:22:34;3.70;;;2.10;;
85670;SDS011;76102;50.890;3.932;2024-03-29T09:25:00;6.35;;;1.80;;
85670;SDS011;76102;50.890;3.932;2024-03-29T09:27:26;3.25;;;1.98;;
85670;SDS011;76102;50.890;3.932;2024-03-29T09:29:52;3.13;;;1.73;;
85670;SDS011;76102;50.890;3.932;2024-03-29T09:32:19;6.13;;;1.58;;
85670;SDS011;76102;50.890;3.932;2024-03-29T09:34:48;3.00;;;1.67;;
85670;SDS011;76102;50.890;3.932;2024-03-29T09:37:16;3.03;;;0.98;;
85670;SDS011;76102;50.890;3.932;2024-03-29T09:39:43;2.20;;;1.40;;
85670;SDS011;76102;50.890;3.932;2024-03-29T09:42:09;1.73;;;1.52;;
85670;SDS011;76102;50.890;3.932;2024-03-29T09:44:40;3.53;;;1.75;;
85670;SDS011;76102;50.890;3.932;2024-03-29T09:47:13;1.27;;;1.17;;
85670;SDS011;76102;50.890;3.932;2024-03-29T09:49:40;2.13;;;1.63;;
85670;SDS011;76102;50.890;3.932;2024-03-29T09:52:09;1.58;;;1.30;;
85670;SDS011;76102;50.890;3.932;2024-03-29T09:57:03;2.70;;;1.50;;
85670;SDS011;76102;50.890;3.932;2024-03-29T09:59:30;2.22;;;1.40;;
85670;SDS011;76102;50.890;3.932;2024-03-29T10:01:59;1.35;;;1.25;;
85670;SDS011;76102;50.890;3.932;2024-03-29T10:04:29;2.30;;;1.45;;
85670;SDS011;76102;50.890;3.932;2024-03-29T10:06:58;5.60;;;1.38;;
85670;SDS011;76102;50.890;3.932;2024-03-29T10:09:28;1.73;;;1.52;;
85670;SDS011;76102;50.890;3.932;2024-03-29T10:11:59;2.60;;;1.35;;
85670;SDS011;76102;50.890;3.932;2024-03-29T10:14:29;1.67;;;1.38;;
85670;SDS011;76102;50.890;3.932;2024-03-29T10:16:57;1.48;;;1.35;;
85670;SDS011;76102;50.890;3.932;2024-03-29T10:19:23;1.58;;;1.35;;
85670;SDS011;76102;50.890;3.932;2024-03-29T10:21:49;1.45;;;1.35;;
85670;SDS011;76102;50.890;3.932;2024-03-29T10:24:17;2.80;;;1.50;;
85670;SDS011;76102;50.890;3.932;2024-03-29T10:26:45;2.22;;;1.55;;
85670;SDS011;76102;50.890;3.932;2024-03-29T10:29:13;1.80;;;1.70;;
85670;SDS011;76102;50.890;3.932;2024-03-29T10:31:39;2.10;;;1.50;;
85670;SDS011;76102;50.890;3.932;2024-03-29T10:34:05;1.60;;;1.48;;
85670;SDS011;76102;50.890;3.932;2024-03-29T10:36:31;1.65;;;1.52;;
85670;SDS011;76102;50.890;3.932;2024-03-29T10:39:04;1.42;;;1.30;;
85670;SDS011;76102;50.890;3.932;2024-03-29T10:41:40;2.17;;;1.50;;
85670;SDS011;76102;50.890;3.932;2024-03-29T10:44:10;2.08;;;1.20;;
85670;SDS011;76102;50.890;3.932;2024-03-29T10:46:37;1.88;;;1.33;;
85670;SDS011;76102;50.890;3.932;2024-03-29T10:49:05;1.42;;;1.13;;
85670;SDS011;76102;50.890;3.932;2024-03-29T10:51:40;3.25;;;1.63;;
85670;SDS011;76102;50.890;3.932;2024-03-29T10:54:08;3.22;;;1.48;;
85670;SDS011;76102;50.890;3.932;2024-03-29T10:56:38;1.40;;;1.30;;
85670;SDS011;76102;50.890;3.932;2024-03-29T10:59:16;1.73;;;1.38;;
85670;SDS011;76102;50.890;3.932;2024-03-29T11:01:59;1.52;;;1.20;;
85670;SDS011;76102;50.890;3.932;2024-03-29T11:04:33;1.10;;;0.93;;
85670;SDS011;76102;50.890;3.932;2024-03-29T11:07:01;0.90;;;0.82;;
85670;SDS011;76102;50.890;3.932;2024-03-29T11:09:34;2.63;;;1.25;;
85670;SDS011;76102;50.890;3.932;2024-03-29T11:12:03;1.55;;;1.13;;
85670;SDS011;76102;50.890;3.932;2024-03-29T11:14:35;2.28;;;1.10;;
85670;SDS011;76102;50.890;3.932;2024-03-29T11:17:12;2.05;;;1.20;;
85670;SDS011;76102;50.890;3.932;2024-03-29T11:19:41;1.00;;;1.00;;
85670;SDS011;76102;50.890;3.932;2024-03-29T11:24:38;1.95;;;0.70;;
85670;SDS011;76102;50.890;3.932;2024-03-29T11:27:11;2.60;;;1.25;;
85670;SDS011;76102;50.890;3.932;2024-03-29T11:29:40;1.00;;;0.88;;
85670;SDS011;76102;50.890;3.932;2024-03-29T11:32:10;1.95;;;0.90;;
85670;SDS011;76102;50.890;3.932;2024-03-29T11:34:50;1.02;;;1.02;;
85670;SDS011;76102;50.890;3.932;2024-03-29T11:37:16;2.10;;;1.00;;
85670;SDS011;76102;50.890;3.932;2024-03-29T11:39:47;1.00;;;0.88;;
85670;SDS011;76102;50.890;3.932;2024-03-29T11:42:15;2.30;;;0.82;;
85670;SDS011;76102;50.890;3.932;2024-03-29T11:44:43;1.13;;;0.82;;
85670;SDS011;76102;50.890;3.932;2024-03-29T11:47:11;0.98;;;0.93;;
85670;SDS011;76102;50.890;3.932;2024-03-29T11:52:05;0.82;;;0.82;;
85670;SDS011;76102;50.890;3.932;2024-03-29T11:54:38;0.80;;;0.80;;
85670;SDS011;76102;50.890;3.932;2024-03-29T11:57:08;2.90;;;0.80;;
85670;SDS011;76102;50.890;3.932;2024-03-29T11:59:34;2.63;;;0.73;;
85670;SDS011;76102;50.890;3.932;2024-03-29T12:01:59;1.90;;;0.77;;
85670;SDS011;76102;50.890;3.932;2024-03-29T12:04:26;1.75;;;0.63;;
85670;SDS011;76102;50.890;3.932;2024-03-29T12:06:52;0.60;;;0.60;;
85670;SDS011;76102;50.890;3.932;2024-03-29T12:09:23;0.60;;;0.60;;
85670;SDS011;76102;50.890;3.932;2024-03-29T12:11:50;4.88;;;0.63;;
85670;SDS011;76102;50.890;3.932;2024-03-29T12:14:17;0.35;;;0.35;;
85670;SDS011;76102;50.890;3.932;2024-03-29T12:16:43;0.90;;;0.90;;
85670;SDS011;76102;50.890;3.932;2024-03-29T12:19:21;2.65;;;0.82;;
85670;SDS011;76102;50.890;3.932;2024-03-29T12:21:53;1.50;;;0.80;;
85670;SDS011;76102;50.890;3.932;2024-03-29T12:24:20;0.93;;;0.82;;
85670;SDS011;76102;50.890;3.932;2024-03-29T12:26:47;1.02;;;1.00;;
85670;SDS011;76102;50.890;3.932;2024-03-29T12:29:19;0.98;;;0.82;;
85670;SDS011;76102;50.890;3.932;2024-03-29T12:31:55;1.00;;;0.70;;
85670;SDS011;76102;50.890;3.932;2024-03-29T12:34:25;0.88;;;0.88;;
85670;SDS011;76102;50.890;3.932;2024-03-29T12:36:50;3.03;;;0.82;;
85670;SDS011;76102;50.890;3.932;2024-03-29T12:39:16;0.75;;;0.75;;
85670;SDS011;76102;50.890;3.932;2024-03-29T12:41:47;1.40;;;1.27;;
85670;SDS011;76102;50.890;3.932;2024-03-29T12:44:13;0.70;;;0.70;;
85670;SDS011;76102;50.890;3.932;2024-03-29T12:46:39;0.82;;;0.82;;
85670;SDS011;76102;50.890;3.932;2024-03-29T12:49:05;1.15;;;1.02;;
85670;SDS011;76102;50.890;3.932;2024-03-29T12:51:31;1.67;;;1.00;;
85670;SDS011;76102;50.890;3.932;2024-03-29T12:54:03;0.60;;;0.60;;
85670;SDS011;76102;50.890;3.932;2024-03-29T12:56:30;1.00;;;0.82;;
85670;SDS011;76102;50.890;3.932;2024-03-29T12:58:56;1.33;;;1.05;;
85670;SDS011;76102;50.890;3.932;2024-03-29T13:01:22;1.00;;;1.00;;
85670;SDS011;76102;50.890;3.932;2024-03-29T13:06:16;1.17;;;0.57;;
85670;SDS011;76102;50.890;3.932;2024-03-29T13:08:42;0.60;;;0.60;;
85670;SDS011;76102;50.890;3.932;2024-03-29T13:11:08;1.40;;;1.20;;
85670;SDS011;76102;50.890;3.932;2024-03-29T13:13:38;3.60;;;1.00;;
85670;SDS011;76102;50.890;3.932;2024-03-29T13:16:04;1.38;;;1.27;;
85670;SDS011;76102;50.890;3.932;2024-03-29T13:18:31;1.15;;;1.10;;
85670;SDS011;76102;50.890;3.932;2024-03-29T13:21:00;1.63;;;1.50;;
85670;SDS011;76102;50.890;3.932;2024-03-29T13:23:27;4.22;;;1.50;;
85670;SDS011;76102;50.890;3.932;2024-03-29T13:25:57;1.42;;;0.95;;
85670;SDS011;76102;50.890;3.932;2024-03-29T13:28:24;1.33;;;1.10;;
85670;SDS011;76102;50.890;3.932;2024-03-29T13:30:52;2.80;;;1.40;;
85670;SDS011;76102;50.890;3.932;2024-03-29T13:33:18;1.42;;;1.08;;
85670;SDS011;76102;50.890;3.932;2024-03-29T13:35:46;2.95;;;1.38;;
85670;SDS011;76102;50.890;3.932;2024-03-29T13:38:11;3.63;;;2.70;;
85670;SDS011;76102;50.890;3.932;2024-03-29T13:40:39;3.78;;;1.98;;
85670;SDS011;76102;50.890;3.932;2024-03-29T13:43:07;1.40;;;1.30;;
85670;SDS011;76102;50.890;3.932;2024-03-29T13:45:35;1.52;;;1.42;;
85670;SDS011;76102;50.890;3.932;2024-03-29T13:48:03;2.90;;;1.25;;
85670;SDS011;76102;50.890;3.932;2024-03-29T13:50:30;2.03;;;1.42;;
85670;SDS011;76102;50.890;3.932;2024-03-29T13:52:58;5.07;;;2.10;;
85670;SDS011;76102;50.890;3.932;2024-03-29T13:55:26;3.75;;;1.90;;
85670;SDS011;76102;50.890;3.932;2024-03-29T13:57:54;1.88;;;1.42;;
85670;SDS011;76102;50.890;3.932;2024-03-29T14:00:20;1.95;;;1.40;;
85670;SDS011;76102;50.890;3.932;2024-03-29T14:02:46;1.40;;;1.20;;
85670;SDS011;76102;50.890;3.932;2024-03-29T14:05:14;1.85;;;1.20;;
85670;SDS011;76102;50.890;3.932;2024-03-29T14:07:40;1.80;;;1.20;;
85670;SDS011;76102;50.890;3.932;2024-03-29T14:10:08;3.40;;;1.13;;
85670;SDS011;76102;50.890;3.932;2024-03-29T14:12:34;1.35;;;1.15;;
85670;SDS011;76102;50.890;3.932;2024-03-29T14:15:00;3.90;;;1.15;;
85670;SDS011;76102;50.890;3.932;2024-03-29T14:17:33;2.25;;;1.30;;
85670;SDS011;76102;50.890;3.932;2024-03-29T14:19:59;1.80;;;0.82;;
85670;SDS011;76102;50.890;3.932;2024-03-29T14:22:28;1.50;;;0.80;;
85670;SDS011;76102;50.890;3.932;2024-03-29T14:27:22;2.25;;;0.93;;
85670;SDS011;76102;50.890;3.932;2024-03-29T14:29:50;2.83;;;0.85;;
85670;SDS011;76102;50.890;3.932;2024-03-29T14:32:18;0.60;;;0.57;;
85670;SDS011;76102;50.890;3.932;2024-03-29T14:34:47;2.45;;;0.90;;
85670;SDS011;76102;50.890;3.932;2024-03-29T14:37:12;0.88;;;0.88;;
85670;SDS011;76102;50.890;3.932;2024-03-29T14:39:40;1.63;;;0.85;;
85670;SDS011;76102;50.890;3.932;2024-03-29T14:42:07;0.75;;;0.70;;
85670;SDS011;76102;50.890;3.932;2024-03-29T14:44:36;0.80;;;0.75;;
85670;SDS011;76102;50.890;3.932;2024-03-29T14:47:02;2.05;;;1.27;;
85670;SDS011;76102;50.890;3.932;2024-03-29T14:49:31;2.35;;;1.38;;
85670;SDS011;76102;50.890;3.932;2024-03-29T14:51:56;1.38;;;1.10;;
85670;SDS011;76102;50.890;3.932;2024-03-29T14:54:22;3.45;;;1.17;;
85670;SDS011;76102;50.890;3.932;2024-03-29T14:56:48;2.75;;;1.10;;
85670;SDS011;76102;50.890;3.932;2024-03-29T14:59:14;0.80;;;0.80;;
85670;SDS011;76102;50.890;3.932;2024-03-29T15:01:42;1.35;;;1.00;;
85670;SDS011;76102;50.890;3.932;2024-03-29T15:04:10;1.55;;;0.82;;
85670;SDS011;76102;50.890;3.932;2024-03-29T15:06:38;1.60;;;1.00;;
85670;SDS011;76102;50.890;3.932;2024-03-29T15:09:04;1.77;;;1.05;;
85670;SDS011;76102;50.890;3.932;2024-03-29T15:11:32;2.28;;;1.20;;
85670;SDS011;76102;50.890;3.932;2024-03-29T15:14:00;3.13;;;1.13;;
85670;SDS011;76102;50.890;3.932;2024-03-29T15:16:25;1.20;;;0.80;;